WEATHER DATA

YESTERDAY
Time Temp. Dewp. Hum. Wind dir Wind speed Wind gust Bar. 1h Prec. 24h Prec.
00:04 16.8 10.2 65 306 0.3 1.1 1007.5 0.0000 0.0000
00:14 16.7 10.1 65 270 0.3 0.8 1007.6 0.0000 0.0000
00:23 16.6 10 65 270 0.3 0.8 1007.6 0.0000 0.0000
00:34 16.5 9.9 65 270 0.3 0.8 1007.6 0.0000 0.0000
00:44 16.5 9.9 65 315 0.3 0.8 1007.5 0.0000 0.0000
00:54 16.4 10 66 335 0.3 0.8 1007.5 0.0000 0.0000
01:04 16.3 9.9 66 270 0.3 0.8 1007.6 0.0000 0.0000
01:14 16.2 9.8 66 322 0.3 1.1 1007.6 0.0000 0.0000
01:25 16.1 9.8 66 315 0.3 0.8 1007.3 0.0000 0.0000
01:35 16.1 9.8 66 322 0.3 1.1 1007.3 0.0000 0.0000
01:45 16 9.7 66 315 0.3 1.1 1007.3 0.0000 0.0000
01:55 16 9.7 66 315 0.3 0.8 1007.3 0.0000 0.0000
02:05 16.1 10 67 341 0.3 1.1 1007.2 0.0000 0.0000
02:15 16.1 10 67 315 0.3 1.1 1007.1 0.0000 0.0000
02:26 16.1 10 67 338 0.3 1.1 1007.2 0.0000 0.0000
02:35 16.1 10.2 68 306 0.3 1.1 1007.1 0.0000 0.0000
02:45 16.1 10.2 68 270 0.3 1.1 1007.1 0.0000 0.0000
02:55 16.1 10.2 68 270 0.3 0.8 1007.1 0.0000 0.0000
03:06 16.2 10.3 68 270 0.3 0.8 1007 0.0000 0.0000
03:16 16.2 10.3 68 270 0.3 0.8 1007 0.0000 0.0000
03:25 16.2 10.3 68 270 0.3 1.1 1007 0.0000 0.0000
03:36 16.2 10.3 68 270 0.3 1.1 1006.8 0.0000 0.0000
03:46 16.2 10.3 68 270 0.3 0.8 1006.9 0.0000 0.0000
03:56 16.2 10.3 68 270 0.3 0.8 1006.8 0.0000 0.0000
04:06 16.1 10.2 68 270 0.3 0.8 1006.8 0.0000 0.0000
04:16 15.9 10 68 270 0.3 0.8 1006.8 0.0000 0.0000
04:26 15.8 10.1 69 270 0.3 1.1 1006.7 0.0000 0.0000
04:36 15.7 10 69 270 0.3 0.8 1006.5 0.0000 0.0000
04:47 15.6 9.9 69 270 0.3 0.8 1006.4 0.0000 0.0000
04:56 15.5 9.8 69 270 0.3 0.8 1006.5 0.0000 0.0000
05:06 15.4 9.7 69 270 0.3 0.8 1006.5 0.0000 0.0000
05:16 15.3 9.7 69 270 0.3 0.8 1006.4 0.0000 0.0000
05:27 15.2 9.6 69 270 0.3 0.8 1006.4 0.0000 0.0000
05:37 15.1 9.5 69 330 0.3 1.1 1006.4 0.0000 0.0000
05:46 15 9.4 69 341 0.3 1.1 1006.3 0.0000 0.0000
05:57 14.8 9.4 70 315 0.3 0.8 1006.3 0.0000 0.0000
06:07 14.7 9.3 70 324 0.3 0.8 1006.3 0.0000 0.0000
06:17 14.6 9.2 70 270 0.3 1.1 1006.2 0.0000 0.0000
06:27 14.5 9.1 70 270 0.3 0.8 1006.2 0.0000 0.0000
06:37 14.5 9.1 70 321 0.3 0.8 1006.3 0.0000 0.0000
06:47 14.5 9.1 70 323 0.3 0.8 1006.3 0.0000 0.0000
06:57 14.5 9.3 71 270 0.3 0.8 1006.2 0.0000 0.0000
07:08 14.6 9.4 71 324 0.3 1.1 1006.1 0.0000 0.0000
07:17 14.6 9.4 71 315 0.3 1.1 1005.9 0.0000 0.0000
07:27 14.7 9.5 71 333 0.3 1.4 1005.8 0.0000 0.0000
07:37 14.8 9.6 71 6 0.3 1.1 1005.8 0.0000 0.0000
07:48 14.8 9.6 71 90 0.3 0.8 1005.8 0.0000 0.0000
07:57 14.8 9.8 72 0 0.3 1.1 1005.8 0.0000 0.0000
08:07 14.9 9.9 72 345 0.3 0.8 1005.8 0.0000 0.0000
08:18 15 10 72 90 0.3 1.1 1005.8 0.0000 0.0000
08:28 15.2 10.2 72 8 0.3 1.1 1005.9 0.0000 0.0000
08:38 15.4 10.4 72 90 0.3 1.1 1005.8 0.0000 0.0000
08:47 15.7 10.7 72 135 0.3 1.1 1005.7 0.0000 0.0000
08:58 16 11 72 315 0.3 1.1 1005.6 0.0000 0.0000
09:08 16.3 11 71 198 0.3 1.1 1005.7 0.0000 0.0000
09:18 16.7 11.4 71 135 0.3 1.1 1005.6 0.0000 0.0000
09:28 17.2 11.7 70 180 0.3 1.1 1005.5 0.0000 0.0000
09:38 17.6 12.1 70 135 0.3 1.1 1005.4 0.0000 0.0000
09:48 18 12.2 69 270 0.3 1.4 1005.4 0.0000 0.0000
09:58 18.2 12.2 68 225 0.3 1.4 1005.2 0.0000 0.0000
10:09 18.5 12.3 67 270 0.3 1.1 1005.2 0.0000 0.0000
10:18 18.9 12.6 67 239 0.3 1.4 1005.1 0.0000 0.0000
10:28 19.4 12.9 66 231 0.8 3.6 1005 0.0000 0.0000
10:39 19.9 13.1 65 270 0.3 1.1 1004.8 0.0000 0.0000
10:49 20.3 13.3 64 242 0.8 1.9 1004.9 0.0000 0.0000
10:59 20.7 13.7 64 270 0.3 1.4 1004.6 0.0000 0.0000
11:08 21 13.7 63 270 0.3 1.4 1004.7 0.0000 0.0000
11:19 21.1 13.5 62 235 0.8 2.2 1004.6 0.0000 0.0000
11:29 21.3 13.5 61 251 0.8 4.4 1004.4 0.0000 0.0000
11:39 21.4 13.3 60 248 0.8 2.5 1004.4 0.0000 0.0000
11:49 21.5 13.4 60 241 0.8 2.2 1004.3 0.0000 0.0000
11:59 21.5 13.4 60 249 0.8 1.9 1004.1 0.0000 0.0000
12:09 21.7 13.6 60 251 0.8 2.2 1004 0.0000 0.0000
12:19 21.9 13.3 58 246 0.8 3.3 1003.9 0.0000 0.0000
12:30 22.1 13.7 59 180 0.8 1.4 1003.8 0.0000 0.0000
12:39 22.3 13.9 59 270 0.3 1.1 1003.6 0.0000 0.0000
12:49 22.5 13.8 58 270 0.8 2.2 1003.5 0.0000 0.0000
13:00 22.7 14 58 270 0.3 3.1 1003.4 0.0000 0.0000
13:10 22.9 14.5 59 270 0.3 1.4 1003.4 0.0000 0.0000
13:20 22.9 14.2 58 305 0.3 1.9 1003.4 0.0000 0.0000
13:29 23 14 57 249 0.8 2.2 1003.3 0.0000 0.0000
13:40 23 14.3 58 225 0.3 2.2 1003.2 0.0000 0.0000
13:50 23 14 57 239 0.8 1.9 1003.1 0.0000 0.0000
14:00 23.1 14.4 58 240 0.3 2.2 1002.9 0.0000 0.0000
14:10 23.1 14.1 57 270 0.3 1.4 1002.8 0.0000 0.0000
14:20 23.2 14.5 58 201 0.8 1.9 1002.7 0.0000 0.0000
14:30 23.3 14.6 58 270 0.3 1.1 1002.6 0.0000 0.0000
14:40 23.3 14 56 225 0.3 1.4 1002.4 0.0000 0.0000
14:51 23.4 14.7 58 270 0.3 1.4 1002.3 0.0000 0.0000
15:00 23.6 14.6 57 216 0.3 1.4 1002.1 0.0000 0.0000
15:10 23.5 14.2 56 243 0.8 1.9 1002.1 0.0000 0.0000
15:20 23.3 14 56 270 0.3 1.4 1002.1 0.0000 0.0000
15:31 23.2 14.2 57 270 0.3 1.9 1002 0.0000 0.0000
15:41 23 13.8 56 315 0.3 2.5 1002 0.0000 0.0000
15:50 23 13.8 56 270 0.3 2.2 1001.8 0.0000 0.0000
16:01 22.9 13.7 56 270 0.3 1.4 1002 0.0000 0.0000
16:11 22.8 13.6 56 270 0.3 1.9 1002 0.0000 0.0000
16:21 22.7 13.5 56 236 0.3 2.5 1001.9 0.0000 0.0000
16:31 22.7 13.5 56 243 0.8 1.4 1001.9 0.0000 0.0000
16:41 22.8 13.6 56 243 0.8 1.9 1001.9 0.0000 0.0000
16:51 22.7 13.5 56 239 0.8 2.5 1001.9 0.0000 0.0000
17:01 22.6 13.7 57 11 0.8 2.2 1001.8 0.0000 0.0000
17:12 22.5 13.6 57 254 0.8 3.1 1001.8 0.0000 0.0000
17:22 22.6 13.7 57 270 0.8 3.3 1001.7 0.0000 0.0000
17:31 22.7 14 58 71 0.8 2.2 1001.7 0.0000 0.0000
17:41 22.7 14 58 225 0.8 3.1 1001.6 0.0000 0.0000
17:52 22.7 14 58 281 0.8 2.5 1001.7 0.0000 0.0000
18:02 22.7 13.8 57 270 0.8 3.3 1001.5 0.0000 0.0000
18:11 22.8 13.8 57 232 0.8 2.5 1001.5 0.0000 0.0000
18:22 22.8 13.8 57 243 0.8 2.5 1001.4 0.0000 0.0000
18:32 22.7 13.5 56 270 0.8 2.2 1001.3 0.0000 0.0000
18:42 22.6 13.4 56 248 0.8 3.1 1001.1 0.0000 0.0000
18:52 22.5 13.3 56 315 0.3 1.9 1001.3 0.0000 0.0000
19:02 22.5 13.6 57 270 0.8 2.2 1001.3 0.0000 0.0000
19:12 22.5 13.6 57 270 0.3 2.2 1001.3 0.0000 0.0000
19:22 22.5 13.6 57 0 0.3 1.1 1001 0.0000 0.0000
19:33 22.4 13.7 58 270 0.3 1.1 1001 0.0000 0.0000
19:43 22.3 13.6 58 270 0.3 1.1 1000.9 0.0000 0.0000
20:02 21.5 13.7 61 341 1.1 2.5 1002 0.0000 0.0000
20:13 20.8 13.5 63 270 0.3 1.9 1002 0.0000 0.0000
20:23 20.5 13.5 64 270 0.3 1.1 1001.9 0.0000 0.0000
20:32 20.3 13.5 65 270 0.3 0.8 1002 0.0000 0.0000
20:43 20.2 13.7 66 270 0.3 1.1 1002 0.0000 0.0000
20:53 20.1 13.6 66 341 0.3 0.8 1002.2 0.0000 0.0000
21:03 20 13.5 66 315 0.3 1.1 1002.2 0.0000 0.0000
21:13 19.9 13.4 66 270 0.3 1.4 1002.4 0.0000 0.0000
21:23 19.8 13 65 225 0.3 1.1 1002.3 0.0000 0.0000
21:33 19.6 12.6 64 270 0.3 1.4 1002.4 0.0000 0.0000
21:43 19.5 12.5 64 315 0.3 1.1 1002.7 0.0000 0.0000
21:53 19.3 12.1 63 270 0.3 1.1 1002.8 0.0000 0.0000
22:04 19.2 11.8 62 270 0.3 1.4 1002.8 0.0000 0.0000
22:13 19.1 11.7 62 270 0.3 1.1 1002.9 0.0000 0.0000
22:23 18.9 11.7 63 270 0.3 1.1 1003.1 0.0000 0.0000
22:34 18.8 11.4 62 270 0.3 1.1 1003.1 0.0000 0.0000
22:44 18.7 11.3 62 270 0.3 1.1 1003.3 0.0000 0.0000
22:54 18.7 11.5 63 315 0.3 0.8 1003.1 0.0000 0.0000
23:04 18.7 11.3 62 341 0.3 1.9 1003.2 0.0000 0.0000
23:14 18.6 11.2 62 245 0.8 3.1 1003.1 0.0000 0.0000
23:24 18.6 10.9 61 270 0.3 1.9 1003.1 0.0000 0.0000
23:34 18.5 10.8 61 270 0.3 1.4 1003.1 0.0000 0.0000
23:45 18.4 10.8 61 270 0.3 1.4 1003.1 0.0000 0.0000
23:54 18.3 10.7 61 0 0.3 1.4 1003.1 0.0000

DAY STATISTIC

2021-07-30
TEMPERATURE
AVERAGE
19.1
HIGH
23.6
15:00
LOW
14.5
06:27
PRESSURE
AVERAGE
1004.3
HIGH
1007.6
00:14
LOW
1000.9
19:43
DEWPOINT
AVERAGE
11.9
HIGH
14.7
14:51
LOW
9.1
06:27
HUMIDITY
AVERAGE
64
HIGH
72
07:57
LOW
56
14:40
WIND SPEED
AVERAGE
0.4
HIGH
1.1
20:02
WIND GUST
AVERAGE
1.5
HIGH
4.4
11:29
WIND DIRECTION
PREVAILING
W
50%
N
9.2
NE
0.0
E
2.8
SE
2.1
S
2.8
SW
15.5
W
50.0
NW
17.6
PRECIPITATION
RAIN HOUR
0.0
RAIN DAY
0.0
TEMPERATURE (°C)
LOW
14.5
HIGH
23.6
AVERAGE
19.1
PRESSURE (hpa)
LOW
1000.9
HIGH
1007.6
AVERAGE
1004.3
DEVICE